• Join FlightAware (Why Join?)
  • Login
  • US Flag 
07:18AM EDT


 

Airport Tracker/Info


-or-


 

Live Flight TrackerFlight Track Log ✈ AMX203 ✈ 13 de May de 2014 ✈ MMTC / TRC - MMMX / MEX

Flight Track Log - Related Links

Times and Time Zones

All times are in EDT time to prevent confusion due to time zone crossing. See the AMX203 flight status page for this flight to view local times or setup timezone preferences in your user account.

Time Position Orientation Groundspeed Altitude Reporting Facility
EDT Latitude Longitude Course Direction KTS MPH feet Rate Location/Type
08:59PM 25.2054 -103.1399 146° Southeast  Level Estimated
09:00PM 25.1145 -103.0725 146° Southeast  Level Estimated
09:01PM 25.0237 -103.0052 146° Southeast  Level Estimated
09:02PM 24.9328 -102.9380 146° Southeast  Level Estimated
09:03PM 24.8419 -102.8709 146° Southeast  Level Estimated
09:04PM 24.7510 -102.8039 146° Southeast  Level Estimated
09:05PM 24.6600 -102.7370 146° Southeast  Level Estimated
09:06PM 24.5690 -102.6701 146° Southeast  Level Estimated
09:07PM 24.4780 -102.6034 146° Southeast  Level Estimated
09:08PM 24.3870 -102.5368 146° Southeast  Level Estimated
09:09PM 24.2959 -102.4703 146° Southeast  Level Estimated
09:10PM 24.2048 -102.4038 146° Southeast  Level Estimated
09:11PM 24.1137 -102.3375 146° Southeast  Level Estimated
09:12PM 24.0225 -102.2712 146° Southeast  Level Estimated
09:13PM 23.9313 -102.2051 146° Southeast  Level Estimated
09:14PM 23.8401 -102.1391 146° Southeast  Level Estimated
09:15PM 23.7488 -102.0731 147° Southeast  Level Estimated
09:16PM 23.6576 -102.0072 147° Southeast  Level Estimated
09:17PM 23.5663 -101.9414 147° Southeast  Level Estimated
09:18PM 23.4749 -101.8757 147° Southeast  Level Estimated
09:19PM 23.3836 -101.8102 147° Southeast  Level Estimated
09:20PM 23.2922 -101.7446 147° Southeast  Level Estimated
09:21PM 23.2008 -101.6792 147° Southeast  Level Estimated
09:22PM 23.1093 -101.6139 147° Southeast  Level Estimated
09:23PM 23.0179 -101.5487 147° Southeast  Level Estimated
09:24PM 22.9264 -101.4835 147° Southeast  Level Estimated
09:25PM 22.8348 -101.4184 147° Southeast  Level Estimated
09:26PM 22.7433 -101.3535 147° Southeast  Level Estimated
09:27PM 22.6517 -101.2886 147° Southeast  Level Estimated
09:28PM 22.5601 -101.2238 147° Southeast  Level Estimated
09:29PM 22.4685 -101.1591 147° Southeast  Level Estimated
09:30PM 22.3769 -101.0945 147° Southeast  Level Estimated
09:31PM 22.2852 -101.0299 147° Southeast  Level Estimated
09:32PM 22.1935 -100.9654 147° Southeast  Level Estimated
09:33PM 22.1017 -100.9011 147° Southeast  Level Estimated
09:34PM 22.0100 -100.8368 147° Southeast  Level Estimated
09:35PM 21.9182 -100.7726 147° Southeast  Level Estimated
09:36PM 21.8264 -100.7084 147° Southeast  Level Estimated
09:37PM 21.7346 -100.6444 147° Southeast  Level Estimated
09:38PM 21.6427 -100.5804 147° Southeast  Level Estimated
09:39PM 21.5508 -100.5166 147° Southeast  Level Estimated
09:40PM 21.4590 -100.4528 147° Southeast  Level Estimated
09:41PM 21.3670 -100.3890 147° Southeast  Level Estimated
09:42PM 21.2751 -100.3254 147° Southeast  Level Estimated
09:43PM 21.1831 -100.2618 147° Southeast  Level Estimated
09:44PM 21.0911 -100.1984 147° Southeast  Level Estimated
09:45PM 20.9991 -100.1350 147° Southeast  Level Estimated
09:46PM 20.9070 -100.0716 147° Southeast  Level Estimated
09:47PM 20.8150 -100.0084 147° Southeast  Level Estimated
09:48PM 20.7229 -99.9452 147° Southeast  Level Estimated
09:49PM 20.6308 -99.8821 147° Southeast  Level Estimated
09:50PM 20.5386 -99.8191 147° Southeast  Level Estimated
09:51PM 20.4465 -99.7562 147° Southeast  Level Estimated
09:52PM 20.3543 -99.6933 147° Southeast  Level Estimated
09:53PM 20.2621 -99.6305 147° Southeast  Level Estimated
09:54PM 20.1699 -99.5678 147° Southeast  Level Estimated
09:55PM 20.0776 -99.5052 147° Southeast  Level Estimated
09:56PM 19.9853 -99.4426 147° Southeast  Level Estimated
09:57PM 19.8930 -99.3801 148° Southeast  Level Estimated
09:58PM 19.8007 -99.3177 148° Southeast  Level Estimated
09:59PM 19.7084 -99.2553 148° Southeast  Level Estimated
10:00PM 19.6161 -99.1930 148° Southeast  Level Estimated
10:01PM 19.5237 -99.1309 148° Southeast  Level Estimated
10:02PM 19.4363 -99.0721 148° Southeast  Level Estimated
10:03PM 19.4363 -99.0721 North  Level Estimated
10:04PM 19.4363 -99.0721 North  Level Estimated
10:05PM 19.4363 -99.0721 North  Level Estimated
10:06PM 19.4363 -99.0721 North  Level Estimated
10:07PM 19.4363 -99.0721 North  Level Estimated
10:08PM 19.4363 -99.0721 North  Level Estimated
10:09PM 19.4363 -99.0721 North  Level Estimated
10:10PM 19.4363 -99.0721 North  Level Estimated
10:11PM 19.4363 -99.0721 North  Level Estimated
10:12PM 19.4363 -99.0721 North  Level Estimated
10:13PM 19.4363 -99.0721 North  Level Estimated
10:14PM 19.4363 -99.0721 North  Level Estimated
10:15PM 19.4363 -99.0721 North  Level Estimated
10:16PM 19.4363 -99.0721 North  Level Estimated
10:17PM 19.4363 -99.0721 North  Level Estimated
10:18PM 19.4363 -99.0721 North  Level Estimated